»·PEaware :: N2102W KRAL-KBUR

N2102W :: KRAL-KBUR

FLIGHT INFORMATION

Flight Status: Arrived
Operator: Privately registered:
United States
More flights under this callsign
Pilot: Eric G. (5941)
Aircraft: BEECH AIRCRAFT PREMIER
(PRM1)
More flights by this aircraft type
Origin: KRAL Riverside Mun
United States
Destination: KBUR Bob Hope-Burbank
United States
More flights between these airports :: More routes between these airports
Route: PDZ V197 POM V264 ITSME V186 VNY
File this flight plan on PilotEdge
Remarks:
Altitude:
(Current/Filed)
8,000ft
Speed:
(Current/Filed)
250kts
Departed: 03-Feb-19 08:26 AM
Arrived: 03-Feb-19 08:52 AM
Distance/Time
Traveled:
48nm/0:26
Distance/Time
To Go:
Arrived

Flight Plot

Page will automatically refresh every two minutes.

Flight plan parsing failed; only flown route is shown


Map Options




Map Legend


Flown Route
Filed Route
Departure Airport
Arrival Airport
Navaid (VOR, NDB)
Fix

Horizontal Profiles

Position Reports

Time Latitude Longitude Heading Altitude Ground
Speed
03-Feb-19 08:02 33.951393 -117.446208 283 772ft 0kts
03-Feb-19 08:03 33.951393 -117.446208 283 772ft 0kts
03-Feb-19 08:04 33.951393 -117.446208 283 772ft 0kts
03-Feb-19 08:05 33.951393 -117.446208 283 772ft 0kts
03-Feb-19 08:06 33.951393 -117.446208 283 772ft 0kts
03-Feb-19 08:07 33.951393 -117.446208 283 772ft 0kts
03-Feb-19 08:08 33.951394 -117.446210 283 772ft 0kts
03-Feb-19 08:09 33.951394 -117.446212 283 772ft 0kts
03-Feb-19 08:10 33.951395 -117.446214 283 772ft 0kts
03-Feb-19 08:11 33.951395 -117.446216 283 772ft 0kts
03-Feb-19 08:12 33.951395 -117.446218 283 772ft 0kts
03-Feb-19 08:13 33.951396 -117.446220 283 772ft 0kts
03-Feb-19 08:14 33.951396 -117.446222 283 772ft 0kts
03-Feb-19 08:15 33.951397 -117.446225 283 772ft 0kts
03-Feb-19 08:16 33.951397 -117.446227 283 772ft 0kts
03-Feb-19 08:17 33.951445 -117.446320 327 772ft 0kts
03-Feb-19 08:18 33.951447 -117.446321 327 772ft 0kts
03-Feb-19 08:19 33.951917 -117.445578 102 772ft 11kts
03-Feb-19 08:20 33.950835 -117.440034 103 772ft 19kts
03-Feb-19 08:21 33.950000 -117.434938 9 772ft 0kts
03-Feb-19 08:22 33.950001 -117.434938 9 772ft 0kts
03-Feb-19 08:23 33.950003 -117.434937 9 772ft 0kts
03-Feb-19 08:24 33.950609 -117.434998 279 772ft 0kts
03-Feb-19 08:25 33.957094 -117.467242 282 1575ft 177kts
03-Feb-19 08:26 33.949018 -117.527334 213 5153ft 210kts
03-Feb-19 08:27 33.922618 -117.580571 298 5784ft 214kts
03-Feb-19 08:28 33.967144 -117.625649 306 6221ft 222kts
03-Feb-19 08:29 34.004083 -117.686094 290 7014ft 221kts
03-Feb-19 08:30 34.025643 -117.749365 288 8062ft 245kts
03-Feb-19 08:31 34.049748 -117.822620 288 8102ft 259kts
03-Feb-19 08:32 34.076026 -117.902764 287 8099ft 255kts
03-Feb-19 08:33 34.098108 -117.983811 284 8095ft 253kts
03-Feb-19 08:34 34.119341 -118.065860 284 8064ft 256kts
03-Feb-19 08:35 34.140576 -118.148045 284 7995ft 255kts
03-Feb-19 08:36 34.159478 -118.220358 284 7063ft 220kts
03-Feb-19 08:37 34.176967 -118.284195 284 5995ft 184kts
03-Feb-19 08:38 34.192678 -118.340978 284 5994ft 197kts
03-Feb-19 08:39 34.210114 -118.404384 284 5995ft 200kts
03-Feb-19 08:40 34.227816 -118.468661 284 5991ft 201kts
03-Feb-19 08:41 34.222087 -118.531675 252 4994ft 182kts
03-Feb-19 08:42 34.209475 -118.586803 252 4381ft 161kts
03-Feb-19 08:43 34.208581 -118.646056 268 4382ft 198kts
03-Feb-19 08:44 34.180865 -118.670646 143 4005ft 194kts
03-Feb-19 08:45 34.194825 -118.619709 67 3969ft 177kts
03-Feb-19 08:46 34.199277 -118.562153 92 3841ft 166kts
03-Feb-19 08:47 34.200368 -118.514781 94 2705ft 146kts
03-Feb-19 08:48 34.198719 -118.469332 85 2257ft 128kts
03-Feb-19 08:49 34.198904 -118.425248 91 1828ft 127kts
03-Feb-19 08:50 34.198107 -118.383723 92 1008ft 120kts
03-Feb-19 08:51 34.197689 -118.355670 86 726ft 19kts
03-Feb-19 08:53 34.198427 -118.355325 342 726ft 4kts
03-Feb-19 08:54 34.199923 -118.358228 347 726ft 20kts
03-Feb-19 08:55 34.202629 -118.359989 184 726ft 0kts
03-Feb-19 08:56 34.202629 -118.359989 184 726ft 0kts
03-Feb-19 08:57 34.202629 -118.359989 184 726ft 0kts

Navigation Log

Ident Type
Flight plan parsing failed, navigation log unavailable